sensor_id;sensor_type;location;lat;lon;timestamp;P1;durP1;ratioP1;P2;durP2;ratioP2
209;SDS011;90;48.810;9.120;2024-02-21T00:00:11;11.83;;;4.43;;
209;SDS011;90;48.810;9.120;2024-02-21T00:02:38;8.03;;;4.53;;
209;SDS011;90;48.810;9.120;2024-02-21T00:05:06;10.73;;;4.70;;
209;SDS011;90;48.810;9.120;2024-02-21T00:07:33;8.57;;;4.70;;
209;SDS011;90;48.810;9.120;2024-02-21T00:10:00;9.50;;;4.70;;
209;SDS011;90;48.810;9.120;2024-02-21T00:12:26;7.43;;;4.47;;
209;SDS011;90;48.810;9.120;2024-02-21T00:14:53;8.77;;;4.87;;
209;SDS011;90;48.810;9.120;2024-02-21T00:17:19;10.83;;;4.57;;
209;SDS011;90;48.810;9.120;2024-02-21T00:19:46;21.07;;;5.43;;
209;SDS011;90;48.810;9.120;2024-02-21T00:22:14;7.40;;;4.30;;
209;SDS011;90;48.810;9.120;2024-02-21T00:24:41;11.20;;;5.27;;
209;SDS011;90;48.810;9.120;2024-02-21T00:27:08;11.13;;;4.97;;
209;SDS011;90;48.810;9.120;2024-02-21T00:29:34;8.00;;;4.80;;
209;SDS011;90;48.810;9.120;2024-02-21T00:32:01;7.77;;;4.60;;
209;SDS011;90;48.810;9.120;2024-02-21T00:34:28;11.20;;;4.90;;
209;SDS011;90;48.810;9.120;2024-02-21T00:36:55;8.70;;;5.00;;
209;SDS011;90;48.810;9.120;2024-02-21T00:39:23;11.23;;;5.70;;
209;SDS011;90;48.810;9.120;2024-02-21T00:41:49;13.73;;;4.93;;
209;SDS011;90;48.810;9.120;2024-02-21T00:44:16;12.57;;;5.87;;
209;SDS011;90;48.810;9.120;2024-02-21T00:46:46;9.57;;;5.03;;
209;SDS011;90;48.810;9.120;2024-02-21T00:49:12;14.30;;;5.40;;
209;SDS011;90;48.810;9.120;2024-02-21T00:51:39;17.67;;;5.60;;
209;SDS011;90;48.810;9.120;2024-02-21T00:54:05;11.37;;;5.50;;
209;SDS011;90;48.810;9.120;2024-02-21T00:56:34;8.80;;;5.00;;
209;SDS011;90;48.810;9.120;2024-02-21T00:59:00;11.53;;;5.20;;
209;SDS011;90;48.810;9.120;2024-02-21T01:01:27;10.23;;;5.03;;
209;SDS011;90;48.810;9.120;2024-02-21T01:03:54;8.13;;;4.50;;
209;SDS011;90;48.810;9.120;2024-02-21T01:06:20;14.73;;;5.37;;
209;SDS011;90;48.810;9.120;2024-02-21T01:08:48;11.63;;;5.80;;
209;SDS011;90;48.810;9.120;2024-02-21T01:11:15;11.87;;;6.10;;
209;SDS011;90;48.810;9.120;2024-02-21T01:13:43;11.00;;;5.10;;
209;SDS011;90;48.810;9.120;2024-02-21T01:16:10;11.87;;;5.53;;
209;SDS011;90;48.810;9.120;2024-02-21T01:18:37;13.00;;;5.30;;
209;SDS011;90;48.810;9.120;2024-02-21T01:21:04;11.47;;;5.40;;
209;SDS011;90;48.810;9.120;2024-02-21T01:23:32;12.77;;;5.37;;
209;SDS011;90;48.810;9.120;2024-02-21T01:25:58;15.97;;;5.80;;
209;SDS011;90;48.810;9.120;2024-02-21T01:28:25;12.30;;;5.37;;
209;SDS011;90;48.810;9.120;2024-02-21T01:30:53;9.03;;;5.00;;
209;SDS011;90;48.810;9.120;2024-02-21T01:33:20;11.53;;;4.90;;
209;SDS011;90;48.810;9.120;2024-02-21T01:35:47;10.40;;;5.63;;
209;SDS011;90;48.810;9.120;2024-02-21T01:38:14;9.77;;;5.67;;
209;SDS011;90;48.810;9.120;2024-02-21T01:40:41;8.70;;;5.10;;
209;SDS011;90;48.810;9.120;2024-02-21T01:43:15;11.40;;;5.00;;
209;SDS011;90;48.810;9.120;2024-02-21T01:45:42;8.93;;;5.07;;
209;SDS011;90;48.810;9.120;2024-02-21T01:48:11;10.63;;;4.73;;
209;SDS011;90;48.810;9.120;2024-02-21T01:50:38;6.87;;;4.63;;
209;SDS011;90;48.810;9.120;2024-02-21T01:53:06;6.73;;;4.97;;
209;SDS011;90;48.810;9.120;2024-02-21T01:55:33;10.20;;;4.90;;
209;SDS011;90;48.810;9.120;2024-02-21T01:58:00;10.60;;;4.43;;
209;SDS011;90;48.810;9.120;2024-02-21T02:00:27;8.50;;;4.80;;
209;SDS011;90;48.810;9.120;2024-02-21T02:02:54;12.93;;;4.70;;
209;SDS011;90;48.810;9.120;2024-02-21T02:05:23;10.63;;;4.83;;
209;SDS011;90;48.810;9.120;2024-02-21T02:07:50;12.50;;;4.97;;
209;SDS011;90;48.810;9.120;2024-02-21T02:10:17;8.00;;;4.40;;
209;SDS011;90;48.810;9.120;2024-02-21T02:12:43;7.93;;;4.57;;
209;SDS011;90;48.810;9.120;2024-02-21T02:15:10;8.27;;;4.50;;
209;SDS011;90;48.810;9.120;2024-02-21T02:17:37;10.97;;;4.57;;
209;SDS011;90;48.810;9.120;2024-02-21T02:20:04;8.23;;;4.83;;
209;SDS011;90;48.810;9.120;2024-02-21T02:22:32;7.20;;;4.30;;
209;SDS011;90;48.810;9.120;2024-02-21T02:25:04;11.73;;;4.87;;
209;SDS011;90;48.810;9.120;2024-02-21T02:27:31;9.57;;;4.80;;
209;SDS011;90;48.810;9.120;2024-02-21T02:29:58;8.73;;;4.23;;
209;SDS011;90;48.810;9.120;2024-02-21T02:32:24;11.07;;;4.60;;
209;SDS011;90;48.810;9.120;2024-02-21T02:34:51;9.73;;;4.37;;
209;SDS011;90;48.810;9.120;2024-02-21T02:37:18;6.67;;;4.13;;
209;SDS011;90;48.810;9.120;2024-02-21T02:39:44;8.70;;;4.50;;
209;SDS011;90;48.810;9.120;2024-02-21T02:42:12;12.30;;;4.53;;
209;SDS011;90;48.810;9.120;2024-02-21T02:44:39;15.17;;;5.10;;
209;SDS011;90;48.810;9.120;2024-02-21T02:47:05;10.43;;;4.63;;
209;SDS011;90;48.810;9.120;2024-02-21T02:49:32;6.57;;;4.53;;
209;SDS011;90;48.810;9.120;2024-02-21T02:51:59;9.00;;;4.10;;
209;SDS011;90;48.810;9.120;2024-02-21T02:54:25;11.50;;;4.83;;
209;SDS011;90;48.810;9.120;2024-02-21T02:56:52;9.53;;;4.80;;
209;SDS011;90;48.810;9.120;2024-02-21T02:59:20;8.37;;;5.00;;
209;SDS011;90;48.810;9.120;2024-02-21T03:01:47;7.50;;;4.40;;
209;SDS011;90;48.810;9.120;2024-02-21T03:04:14;8.57;;;5.07;;
209;SDS011;90;48.810;9.120;2024-02-21T03:06:40;15.93;;;5.00;;
209;SDS011;90;48.810;9.120;2024-02-21T03:09:07;12.30;;;4.17;;
209;SDS011;90;48.810;9.120;2024-02-21T03:11:34;9.20;;;5.00;;
209;SDS011;90;48.810;9.120;2024-02-21T03:14:01;7.70;;;4.50;;
209;SDS011;90;48.810;9.120;2024-02-21T03:16:30;6.87;;;4.43;;
209;SDS011;90;48.810;9.120;2024-02-21T03:18:56;6.43;;;4.60;;
209;SDS011;90;48.810;9.120;2024-02-21T03:21:23;9.70;;;4.90;;
209;SDS011;90;48.810;9.120;2024-02-21T03:23:50;9.40;;;4.87;;
209;SDS011;90;48.810;9.120;2024-02-21T03:26:16;5.90;;;4.20;;
209;SDS011;90;48.810;9.120;2024-02-21T03:28:43;9.67;;;4.83;;
209;SDS011;90;48.810;9.120;2024-02-21T03:31:11;9.67;;;4.63;;
209;SDS011;90;48.810;9.120;2024-02-21T03:33:40;6.83;;;4.70;;
209;SDS011;90;48.810;9.120;2024-02-21T03:36:12;6.70;;;4.43;;
209;SDS011;90;48.810;9.120;2024-02-21T03:38:40;11.73;;;5.70;;
209;SDS011;90;48.810;9.120;2024-02-21T07:48:38;4.57;;;3.60;;
209;SDS011;90;48.810;9.120;2024-02-21T07:51:04;6.30;;;3.70;;
209;SDS011;90;48.810;9.120;2024-02-21T07:53:31;5.03;;;3.80;;
209;SDS011;90;48.810;9.120;2024-02-21T07:55:58;10.47;;;3.80;;
209;SDS011;90;48.810;9.120;2024-02-21T07:58:25;6.70;;;3.80;;
209;SDS011;90;48.810;9.120;2024-02-21T08:00:52;10.60;;;3.80;;
209;SDS011;90;48.810;9.120;2024-02-21T08:03:19;4.83;;;3.50;;
209;SDS011;90;48.810;9.120;2024-02-21T08:05:47;6.30;;;3.47;;
209;SDS011;90;48.810;9.120;2024-02-21T08:08:14;7.23;;;3.63;;
209;SDS011;90;48.810;9.120;2024-02-21T08:10:45;7.40;;;3.97;;
209;SDS011;90;48.810;9.120;2024-02-21T08:13:11;5.50;;;3.87;;
209;SDS011;90;48.810;9.120;2024-02-21T08:15:38;8.00;;;3.77;;
209;SDS011;90;48.810;9.120;2024-02-21T08:18:06;5.70;;;3.73;;
209;SDS011;90;48.810;9.120;2024-02-21T08:20:33;7.70;;;3.70;;
209;SDS011;90;48.810;9.120;2024-02-21T08:23:01;5.37;;;4.03;;
209;SDS011;90;48.810;9.120;2024-02-21T08:25:28;5.00;;;3.60;;
209;SDS011;90;48.810;9.120;2024-02-21T08:27:57;7.50;;;3.83;;
209;SDS011;90;48.810;9.120;2024-02-21T08:30:25;3.90;;;3.67;;
209;SDS011;90;48.810;9.120;2024-02-21T08:32:52;8.37;;;3.60;;
209;SDS011;90;48.810;9.120;2024-02-21T08:35:19;8.70;;;3.50;;
209;SDS011;90;48.810;9.120;2024-02-21T08:37:47;11.43;;;4.40;;
209;SDS011;90;48.810;9.120;2024-02-21T08:40:15;6.80;;;3.40;;
209;SDS011;90;48.810;9.120;2024-02-21T08:42:45;7.63;;;3.83;;
209;SDS011;90;48.810;9.120;2024-02-21T08:45:12;5.63;;;3.30;;
209;SDS011;90;48.810;9.120;2024-02-21T08:47:39;10.40;;;5.00;;
209;SDS011;90;48.810;9.120;2024-02-21T08:50:06;3.87;;;3.27;;
209;SDS011;90;48.810;9.120;2024-02-21T08:52:34;3.63;;;3.53;;
209;SDS011;90;48.810;9.120;2024-02-21T08:55:01;7.37;;;3.77;;
209;SDS011;90;48.810;9.120;2024-02-21T08:57:30;7.30;;;3.73;;
209;SDS011;90;48.810;9.120;2024-02-21T09:00:01;3.40;;;3.23;;
209;SDS011;90;48.810;9.120;2024-02-21T09:02:34;9.70;;;3.97;;
209;SDS011;90;48.810;9.120;2024-02-21T09:05:02;7.73;;;3.67;;
209;SDS011;90;48.810;9.120;2024-02-21T09:07:30;9.10;;;3.90;;
209;SDS011;90;48.810;9.120;2024-02-21T09:09:56;10.20;;;4.10;;
209;SDS011;90;48.810;9.120;2024-02-21T09:12:23;5.50;;;3.70;;
209;SDS011;90;48.810;9.120;2024-02-21T09:14:51;10.63;;;3.27;;
209;SDS011;90;48.810;9.120;2024-02-21T09:17:18;5.67;;;3.30;;
209;SDS011;90;48.810;9.120;2024-02-21T09:19:45;6.63;;;3.40;;
209;SDS011;90;48.810;9.120;2024-02-21T09:22:12;5.53;;;3.53;;
209;SDS011;90;48.810;9.120;2024-02-21T09:24:39;6.40;;;3.90;;
209;SDS011;90;48.810;9.120;2024-02-21T09:27:06;5.53;;;3.90;;
209;SDS011;90;48.810;9.120;2024-02-21T09:29:33;5.23;;;3.10;;
209;SDS011;90;48.810;9.120;2024-02-21T09:32:01;10.23;;;3.37;;
209;SDS011;90;48.810;9.120;2024-02-21T09:34:28;4.30;;;3.03;;
209;SDS011;90;48.810;9.120;2024-02-21T09:36:55;6.33;;;3.70;;
209;SDS011;90;48.810;9.120;2024-02-21T09:39:22;4.70;;;3.40;;
209;SDS011;90;48.810;9.120;2024-02-21T09:41:50;9.77;;;3.30;;
209;SDS011;90;48.810;9.120;2024-02-21T09:44:33;4.43;;;2.80;;
209;SDS011;90;48.810;9.120;2024-02-21T09:47:06;8.33;;;3.27;;
209;SDS011;90;48.810;9.120;2024-02-21T09:49:36;4.07;;;3.03;;
209;SDS011;90;48.810;9.120;2024-02-21T09:52:04;5.07;;;3.30;;
209;SDS011;90;48.810;9.120;2024-02-21T09:54:32;6.90;;;3.20;;
209;SDS011;90;48.810;9.120;2024-02-21T09:56:59;7.23;;;2.90;;
209;SDS011;90;48.810;9.120;2024-02-21T09:59:26;12.77;;;3.73;;
209;SDS011;90;48.810;9.120;2024-02-21T10:01:56;7.47;;;3.20;;
209;SDS011;90;48.810;9.120;2024-02-21T10:04:26;4.67;;;3.07;;
209;SDS011;90;48.810;9.120;2024-02-21T10:06:53;9.80;;;2.93;;
209;SDS011;90;48.810;9.120;2024-02-21T10:09:21;7.80;;;3.10;;
209;SDS011;90;48.810;9.120;2024-02-21T10:11:48;6.90;;;3.00;;
209;SDS011;90;48.810;9.120;2024-02-21T10:14:15;5.57;;;2.73;;
209;SDS011;90;48.810;9.120;2024-02-21T10:16:43;8.57;;;3.57;;
209;SDS011;90;48.810;9.120;2024-02-21T10:19:19;6.30;;;3.17;;
209;SDS011;90;48.810;9.120;2024-02-21T10:22:01;5.17;;;3.20;;
209;SDS011;90;48.810;9.120;2024-02-21T10:24:28;7.40;;;3.57;;
209;SDS011;90;48.810;9.120;2024-02-21T10:26:59;6.33;;;2.90;;
209;SDS011;90;48.810;9.120;2024-02-21T10:29:28;6.17;;;3.27;;
209;SDS011;90;48.810;9.120;2024-02-21T10:32:03;3.63;;;2.83;;
209;SDS011;90;48.810;9.120;2024-02-21T10:34:31;7.03;;;3.47;;
209;SDS011;90;48.810;9.120;2024-02-21T10:37:01;3.70;;;3.30;;
209;SDS011;90;48.810;9.120;2024-02-21T10:39:28;4.00;;;2.90;;
209;SDS011;90;48.810;9.120;2024-02-21T10:41:55;10.23;;;3.53;;
209;SDS011;90;48.810;9.120;2024-02-21T10:44:25;6.20;;;2.90;;
209;SDS011;90;48.810;9.120;2024-02-21T10:46:54;6.00;;;2.70;;
209;SDS011;90;48.810;9.120;2024-02-21T10:49:25;7.50;;;3.10;;
209;SDS011;90;48.810;9.120;2024-02-21T10:51:54;7.97;;;3.30;;
209;SDS011;90;48.810;9.120;2024-02-21T10:54:34;5.73;;;3.10;;
209;SDS011;90;48.810;9.120;2024-02-21T10:57:06;5.60;;;2.90;;
209;SDS011;90;48.810;9.120;2024-02-21T10:59:37;9.07;;;3.13;;
209;SDS011;90;48.810;9.120;2024-02-21T11:02:07;4.50;;;3.87;;
209;SDS011;90;48.810;9.120;2024-02-21T11:04:40;4.60;;;3.40;;
209;SDS011;90;48.810;9.120;2024-02-21T11:07:08;3.97;;;2.90;;
209;SDS011;90;48.810;9.120;2024-02-21T11:09:36;7.50;;;2.73;;
209;SDS011;90;48.810;9.120;2024-02-21T11:12:06;5.23;;;3.20;;
209;SDS011;90;48.810;9.120;2024-02-21T11:14:34;4.57;;;3.40;;
209;SDS011;90;48.810;9.120;2024-02-21T11:17:13;8.97;;;3.47;;
209;SDS011;90;48.810;9.120;2024-02-21T11:19:44;5.00;;;3.30;;
209;SDS011;90;48.810;9.120;2024-02-21T11:22:14;4.70;;;2.77;;
209;SDS011;90;48.810;9.120;2024-02-21T11:24:45;5.57;;;2.90;;
209;SDS011;90;48.810;9.120;2024-02-21T11:27:12;8.20;;;3.50;;
209;SDS011;90;48.810;9.120;2024-02-21T11:29:39;5.10;;;2.80;;
209;SDS011;90;48.810;9.120;2024-02-21T11:32:08;8.17;;;3.37;;
209;SDS011;90;48.810;9.120;2024-02-21T11:34:36;46.87;;;15.47;;
209;SDS011;90;48.810;9.120;2024-02-21T11:37:04;26.97;;;7.00;;
209;SDS011;90;48.810;9.120;2024-02-21T11:39:41;44.80;;;11.63;;
209;SDS011;90;48.810;9.120;2024-02-21T11:42:09;31.87;;;10.10;;
209;SDS011;90;48.810;9.120;2024-02-21T11:44:38;3.97;;;3.60;;
209;SDS011;90;48.810;9.120;2024-02-21T11:47:07;4.40;;;3.70;;
209;SDS011;90;48.810;9.120;2024-02-21T11:49:37;4.03;;;3.23;;
209;SDS011;90;48.810;9.120;2024-02-21T11:52:04;6.03;;;3.30;;
209;SDS011;90;48.810;9.120;2024-02-21T11:54:32;5.40;;;3.80;;
209;SDS011;90;48.810;9.120;2024-02-21T11:56:59;8.30;;;3.20;;
209;SDS011;90;48.810;9.120;2024-02-21T11:59:29;4.73;;;3.40;;
209;SDS011;90;48.810;9.120;2024-02-21T12:01:59;3.97;;;3.00;;
209;SDS011;90;48.810;9.120;2024-02-21T12:04:28;5.30;;;2.77;;
209;SDS011;90;48.810;9.120;2024-02-21T12:06:56;7.30;;;3.70;;
209;SDS011;90;48.810;9.120;2024-02-21T12:09:23;3.47;;;3.00;;
209;SDS011;90;48.810;9.120;2024-02-21T12:11:56;6.03;;;2.90;;
209;SDS011;90;48.810;9.120;2024-02-21T12:14:24;3.80;;;2.97;;
209;SDS011;90;48.810;9.120;2024-02-21T12:16:52;3.90;;;3.10;;
209;SDS011;90;48.810;9.120;2024-02-21T12:19:23;9.20;;;3.50;;
209;SDS011;90;48.810;9.120;2024-02-21T12:21:49;5.63;;;3.10;;
209;SDS011;90;48.810;9.120;2024-02-21T12:24:18;4.50;;;2.60;;
209;SDS011;90;48.810;9.120;2024-02-21T12:26:50;5.07;;;2.87;;
209;SDS011;90;48.810;9.120;2024-02-21T12:29:19;3.67;;;3.47;;
209;SDS011;90;48.810;9.120;2024-02-21T12:31:50;5.70;;;3.27;;
209;SDS011;90;48.810;9.120;2024-02-21T12:34:21;6.93;;;2.97;;
209;SDS011;90;48.810;9.120;2024-02-21T12:36:52;3.00;;;2.80;;
209;SDS011;90;48.810;9.120;2024-02-21T12:39:19;5.00;;;3.03;;
209;SDS011;90;48.810;9.120;2024-02-21T12:41:53;3.23;;;2.77;;
209;SDS011;90;48.810;9.120;2024-02-21T12:44:34;3.17;;;3.00;;
209;SDS011;90;48.810;9.120;2024-02-21T12:47:03;5.90;;;3.10;;
209;SDS011;90;48.810;9.120;2024-02-21T12:49:31;9.53;;;2.90;;
209;SDS011;90;48.810;9.120;2024-02-21T12:52:00;3.93;;;2.50;;
209;SDS011;90;48.810;9.120;2024-02-21T12:54:28;5.33;;;2.80;;
209;SDS011;90;48.810;9.120;2024-02-21T12:56:56;5.37;;;3.40;;
209;SDS011;90;48.810;9.120;2024-02-21T12:59:23;6.53;;;2.90;;
209;SDS011;90;48.810;9.120;2024-02-21T13:01:53;3.57;;;2.70;;
209;SDS011;90;48.810;9.120;2024-02-21T13:04:27;4.10;;;2.63;;
209;SDS011;90;48.810;9.120;2024-02-21T13:06:57;4.27;;;3.20;;
209;SDS011;90;48.810;9.120;2024-02-21T13:12:09;4.37;;;2.57;;
209;SDS011;90;48.810;9.120;2024-02-21T13:14:40;3.90;;;3.03;;
209;SDS011;90;48.810;9.120;2024-02-21T13:17:17;5.30;;;3.20;;
209;SDS011;90;48.810;9.120;2024-02-21T13:19:47;4.23;;;2.50;;
209;SDS011;90;48.810;9.120;2024-02-21T13:22:29;3.10;;;2.80;;
209;SDS011;90;48.810;9.120;2024-02-21T13:25:55;5.60;;;3.23;;
209;SDS011;90;48.810;9.120;2024-02-21T13:28:35;4.83;;;2.77;;
209;SDS011;90;48.810;9.120;2024-02-21T13:31:27;3.40;;;2.70;;
209;SDS011;90;48.810;9.120;2024-02-21T13:34:23;3.33;;;2.93;;
209;SDS011;90;48.810;9.120;2024-02-21T13:37:10;4.67;;;2.70;;
209;SDS011;90;48.810;9.120;2024-02-21T13:39:39;3.20;;;3.00;;
209;SDS011;90;48.810;9.120;2024-02-21T13:42:08;3.03;;;2.50;;
209;SDS011;90;48.810;9.120;2024-02-21T13:44:41;2.97;;;2.40;;
209;SDS011;90;48.810;9.120;2024-02-21T13:47:09;2.53;;;2.40;;
209;SDS011;90;48.810;9.120;2024-02-21T13:49:44;3.77;;;2.43;;
209;SDS011;90;48.810;9.120;2024-02-21T13:52:11;3.77;;;2.77;;
209;SDS011;90;48.810;9.120;2024-02-21T13:55:06;3.27;;;3.07;;
209;SDS011;90;48.810;9.120;2024-02-21T13:57:36;3.90;;;2.20;;
209;SDS011;90;48.810;9.120;2024-02-21T14:00:09;3.73;;;2.23;;
209;SDS011;90;48.810;9.120;2024-02-21T14:02:46;4.50;;;2.57;;
209;SDS011;90;48.810;9.120;2024-02-21T14:05:18;5.07;;;2.50;;
209;SDS011;90;48.810;9.120;2024-02-21T14:08:04;3.20;;;2.20;;
209;SDS011;90;48.810;9.120;2024-02-21T14:10:37;4.90;;;2.30;;
209;SDS011;90;48.810;9.120;2024-02-21T14:13:17;3.70;;;2.33;;
209;SDS011;90;48.810;9.120;2024-02-21T14:15:53;2.40;;;2.30;;
209;SDS011;90;48.810;9.120;2024-02-21T14:18:25;2.40;;;2.10;;
209;SDS011;90;48.810;9.120;2024-02-21T14:20:52;4.20;;;2.33;;
209;SDS011;90;48.810;9.120;2024-02-21T14:23:22;2.60;;;2.27;;
209;SDS011;90;48.810;9.120;2024-02-21T14:25:50;3.00;;;2.40;;
209;SDS011;90;48.810;9.120;2024-02-21T14:28:16;4.00;;;2.10;;
209;SDS011;90;48.810;9.120;2024-02-21T14:30:44;2.50;;;2.20;;
209;SDS011;90;48.810;9.120;2024-02-21T14:33:12;2.80;;;2.33;;
209;SDS011;90;48.810;9.120;2024-02-21T14:35:39;5.97;;;3.70;;
209;SDS011;90;48.810;9.120;2024-02-21T14:38:07;3.73;;;2.27;;
209;SDS011;90;48.810;9.120;2024-02-21T14:40:33;2.73;;;2.53;;
209;SDS011;90;48.810;9.120;2024-02-21T14:43:02;2.73;;;2.53;;
209;SDS011;90;48.810;9.120;2024-02-21T14:45:28;4.47;;;2.50;;
209;SDS011;90;48.810;9.120;2024-02-21T14:47:56;6.53;;;2.30;;
209;SDS011;90;48.810;9.120;2024-02-21T14:50:23;3.33;;;1.80;;
209;SDS011;90;48.810;9.120;2024-02-21T14:52:49;4.23;;;2.20;;
209;SDS011;90;48.810;9.120;2024-02-21T14:55:17;3.00;;;2.07;;
209;SDS011;90;48.810;9.120;2024-02-21T14:57:44;4.30;;;2.00;;
209;SDS011;90;48.810;9.120;2024-02-21T15:00:12;2.27;;;2.10;;
209;SDS011;90;48.810;9.120;2024-02-21T15:02:40;3.20;;;1.90;;
209;SDS011;90;48.810;9.120;2024-02-21T15:05:08;3.90;;;2.33;;
209;SDS011;90;48.810;9.120;2024-02-21T15:07:35;2.80;;;2.47;;
209;SDS011;90;48.810;9.120;2024-02-21T15:10:02;2.50;;;2.30;;
209;SDS011;90;48.810;9.120;2024-02-21T15:12:29;2.63;;;2.37;;
209;SDS011;90;48.810;9.120;2024-02-21T15:14:56;2.80;;;1.97;;
209;SDS011;90;48.810;9.120;2024-02-21T15:17:25;3.33;;;2.40;;
209;SDS011;90;48.810;9.120;2024-02-21T15:19:52;3.80;;;2.10;;
209;SDS011;90;48.810;9.120;2024-02-21T15:22:20;2.57;;;2.23;;
209;SDS011;90;48.810;9.120;2024-02-21T15:24:47;3.10;;;1.97;;
209;SDS011;90;48.810;9.120;2024-02-21T15:27:14;3.40;;;2.70;;
209;SDS011;90;48.810;9.120;2024-02-21T15:29:41;2.87;;;2.50;;
209;SDS011;90;48.810;9.120;2024-02-21T15:32:09;2.70;;;1.90;;
209;SDS011;90;48.810;9.120;2024-02-21T15:34:37;3.53;;;2.33;;
209;SDS011;90;48.810;9.120;2024-02-21T15:37:04;3.13;;;2.17;;
209;SDS011;90;48.810;9.120;2024-02-21T15:39:31;2.13;;;2.00;;
209;SDS011;90;48.810;9.120;2024-02-21T15:41:58;3.27;;;1.97;;
209;SDS011;90;48.810;9.120;2024-02-21T15:44:24;2.67;;;2.10;;
209;SDS011;90;48.810;9.120;2024-02-21T15:46:51;3.67;;;2.20;;
209;SDS011;90;48.810;9.120;2024-02-21T15:49:18;3.90;;;2.40;;
209;SDS011;90;48.810;9.120;2024-02-21T15:51:46;3.13;;;2.00;;
209;SDS011;90;48.810;9.120;2024-02-21T15:54:14;2.67;;;2.10;;
209;SDS011;90;48.810;9.120;2024-02-21T15:56:42;3.77;;;2.20;;
209;SDS011;90;48.810;9.120;2024-02-21T15:59:09;5.33;;;2.10;;
209;SDS011;90;48.810;9.120;2024-02-21T16:01:36;2.57;;;2.00;;
209;SDS011;90;48.810;9.120;2024-02-21T16:04:03;2.83;;;2.10;;
209;SDS011;90;48.810;9.120;2024-02-21T16:06:30;2.67;;;2.37;;
209;SDS011;90;48.810;9.120;2024-02-21T16:08:58;3.17;;;2.10;;
209;SDS011;90;48.810;9.120;2024-02-21T16:11:25;3.50;;;2.30;;
209;SDS011;90;48.810;9.120;2024-02-21T16:13:52;4.27;;;2.20;;
209;SDS011;90;48.810;9.120;2024-02-21T16:16:20;2.70;;;2.60;;
209;SDS011;90;48.810;9.120;2024-02-21T16:18:46;3.47;;;2.60;;
209;SDS011;90;48.810;9.120;2024-02-21T16:21:13;3.30;;;2.40;;
209;SDS011;90;48.810;9.120;2024-02-21T16:23:40;2.60;;;2.23;;
209;SDS011;90;48.810;9.120;2024-02-21T16:26:08;2.50;;;2.40;;
209;SDS011;90;48.810;9.120;2024-02-21T16:28:36;2.60;;;2.33;;
209;SDS011;90;48.810;9.120;2024-02-21T16:31:03;3.80;;;2.20;;
209;SDS011;90;48.810;9.120;2024-02-21T16:33:30;2.03;;;1.90;;
209;SDS011;90;48.810;9.120;2024-02-21T16:35:58;2.73;;;2.53;;
209;SDS011;90;48.810;9.120;2024-02-21T16:38:25;8.33;;;3.17;;
209;SDS011;90;48.810;9.120;2024-02-21T16:40:52;4.97;;;2.93;;
209;SDS011;90;48.810;9.120;2024-02-21T16:43:20;3.43;;;2.57;;
209;SDS011;90;48.810;9.120;2024-02-21T16:45:47;6.13;;;2.93;;
209;SDS011;90;48.810;9.120;2024-02-21T16:48:13;2.70;;;2.50;;
209;SDS011;90;48.810;9.120;2024-02-21T16:50:40;4.00;;;2.47;;
209;SDS011;90;48.810;9.120;2024-02-21T16:53:07;9.90;;;3.07;;
209;SDS011;90;48.810;9.120;2024-02-21T16:55:34;11.63;;;3.47;;
209;SDS011;90;48.810;9.120;2024-02-21T16:58:00;5.20;;;2.93;;
209;SDS011;90;48.810;9.120;2024-02-21T17:00:33;4.83;;;2.77;;
209;SDS011;90;48.810;9.120;2024-02-21T17:03:04;3.00;;;2.80;;
209;SDS011;90;48.810;9.120;2024-02-21T17:05:30;3.53;;;2.87;;
209;SDS011;90;48.810;9.120;2024-02-21T17:07:57;4.63;;;2.80;;
209;SDS011;90;48.810;9.120;2024-02-21T17:10:24;6.47;;;2.60;;
209;SDS011;90;48.810;9.120;2024-02-21T17:12:50;6.07;;;3.13;;
209;SDS011;90;48.810;9.120;2024-02-21T17:15:17;4.03;;;2.93;;
209;SDS011;90;48.810;9.120;2024-02-21T17:17:45;4.40;;;2.90;;
209;SDS011;90;48.810;9.120;2024-02-21T17:20:12;5.80;;;2.70;;
209;SDS011;90;48.810;9.120;2024-02-21T17:22:42;3.03;;;2.80;;
209;SDS011;90;48.810;9.120;2024-02-21T17:25:08;5.87;;;3.30;;
209;SDS011;90;48.810;9.120;2024-02-21T17:27:35;3.60;;;2.93;;
209;SDS011;90;48.810;9.120;2024-02-21T17:30:03;4.97;;;3.00;;
209;SDS011;90;48.810;9.120;2024-02-21T17:32:31;3.10;;;2.97;;
209;SDS011;90;48.810;9.120;2024-02-21T17:35:00;5.40;;;2.80;;
209;SDS011;90;48.810;9.120;2024-02-21T17:37:29;3.60;;;3.23;;
209;SDS011;90;48.810;9.120;2024-02-21T17:39:56;3.50;;;2.90;;
209;SDS011;90;48.810;9.120;2024-02-21T17:42:22;8.40;;;2.97;;
209;SDS011;90;48.810;9.120;2024-02-21T17:44:49;3.23;;;3.07;;
209;SDS011;90;48.810;9.120;2024-02-21T17:47:17;5.70;;;3.10;;
209;SDS011;90;48.810;9.120;2024-02-21T17:49:43;3.33;;;3.20;;
209;SDS011;90;48.810;9.120;2024-02-21T17:52:12;3.53;;;3.33;;
209;SDS011;90;48.810;9.120;2024-02-21T17:54:39;3.23;;;3.00;;
209;SDS011;90;48.810;9.120;2024-02-21T17:57:09;5.90;;;3.10;;
209;SDS011;90;48.810;9.120;2024-02-21T17:59:38;3.30;;;3.10;;
209;SDS011;90;48.810;9.120;2024-02-21T18:02:05;4.20;;;3.50;;
209;SDS011;90;48.810;9.120;2024-02-21T18:04:32;6.57;;;4.00;;
209;SDS011;90;48.810;9.120;2024-02-21T18:06:58;5.53;;;3.60;;
209;SDS011;90;48.810;9.120;2024-02-21T18:09:27;4.70;;;2.83;;
209;SDS011;90;48.810;9.120;2024-02-21T18:11:53;2.70;;;2.50;;
209;SDS011;90;48.810;9.120;2024-02-21T18:14:20;3.47;;;3.27;;
209;SDS011;90;48.810;9.120;2024-02-21T18:16:47;2.83;;;2.63;;
209;SDS011;90;48.810;9.120;2024-02-21T18:19:13;3.27;;;2.90;;
209;SDS011;90;48.810;9.120;2024-02-21T18:21:40;3.70;;;3.20;;
209;SDS011;90;48.810;9.120;2024-02-21T18:24:07;5.23;;;2.90;;
209;SDS011;90;48.810;9.120;2024-02-21T18:26:35;2.90;;;2.70;;
209;SDS011;90;48.810;9.120;2024-02-21T18:29:03;3.30;;;3.10;;
209;SDS011;90;48.810;9.120;2024-02-21T18:31:30;3.20;;;3.00;;
209;SDS011;90;48.810;9.120;2024-02-21T18:33:57;3.53;;;2.80;;
209;SDS011;90;48.810;9.120;2024-02-21T18:36:26;4.40;;;3.30;;
209;SDS011;90;48.810;9.120;2024-02-21T18:38:52;3.10;;;2.77;;
209;SDS011;90;48.810;9.120;2024-02-21T18:41:20;3.87;;;3.10;;
209;SDS011;90;48.810;9.120;2024-02-21T18:43:49;2.67;;;2.47;;
209;SDS011;90;48.810;9.120;2024-02-21T18:46:16;2.70;;;2.50;;
209;SDS011;90;48.810;9.120;2024-02-21T18:48:42;2.80;;;2.60;;
209;SDS011;90;48.810;9.120;2024-02-21T18:51:12;3.00;;;2.80;;
209;SDS011;90;48.810;9.120;2024-02-21T18:53:39;4.10;;;2.63;;
209;SDS011;90;48.810;9.120;2024-02-21T18:56:06;4.23;;;2.70;;
209;SDS011;90;48.810;9.120;2024-02-21T18:58:33;3.70;;;2.90;;
209;SDS011;90;48.810;9.120;2024-02-21T19:01:01;5.07;;;3.57;;
209;SDS011;90;48.810;9.120;2024-02-21T19:03:28;2.63;;;2.43;;
209;SDS011;90;48.810;9.120;2024-02-21T19:05:55;2.83;;;2.70;;
209;SDS011;90;48.810;9.120;2024-02-21T19:08:22;2.90;;;2.70;;
209;SDS011;90;48.810;9.120;2024-02-21T19:10:49;3.53;;;2.80;;
209;SDS011;90;48.810;9.120;2024-02-21T19:13:15;3.57;;;3.10;;
209;SDS011;90;48.810;9.120;2024-02-21T19:15:42;2.60;;;2.40;;
209;SDS011;90;48.810;9.120;2024-02-21T19:18:10;2.57;;;2.37;;
209;SDS011;90;48.810;9.120;2024-02-21T19:20:37;3.00;;;2.80;;
209;SDS011;90;48.810;9.120;2024-02-21T19:23:04;4.00;;;2.90;;
209;SDS011;90;48.810;9.120;2024-02-21T19:25:32;3.20;;;2.67;;
209;SDS011;90;48.810;9.120;2024-02-21T19:27:59;5.40;;;3.33;;
209;SDS011;90;48.810;9.120;2024-02-21T19:30:26;4.00;;;3.23;;
209;SDS011;90;48.810;9.120;2024-02-21T19:32:53;3.80;;;2.90;;
209;SDS011;90;48.810;9.120;2024-02-21T19:35:21;3.47;;;3.27;;
209;SDS011;90;48.810;9.120;2024-02-21T19:37:48;5.00;;;3.00;;
209;SDS011;90;48.810;9.120;2024-02-21T19:40:15;3.87;;;3.30;;
209;SDS011;90;48.810;9.120;2024-02-21T19:42:42;3.30;;;2.83;;
209;SDS011;90;48.810;9.120;2024-02-21T19:45:09;3.20;;;3.00;;
209;SDS011;90;48.810;9.120;2024-02-21T19:47:36;4.03;;;3.10;;
209;SDS011;90;48.810;9.120;2024-02-21T19:50:03;3.40;;;3.03;;
209;SDS011;90;48.810;9.120;2024-02-21T19:52:32;4.67;;;3.07;;
209;SDS011;90;48.810;9.120;2024-02-21T19:54:58;3.80;;;2.97;;
209;SDS011;90;48.810;9.120;2024-02-21T19:57:25;3.47;;;3.27;;
209;SDS011;90;48.810;9.120;2024-02-21T19:59:52;3.83;;;3.40;;
209;SDS011;90;48.810;9.120;2024-02-21T20:02:20;3.23;;;3.07;;
209;SDS011;90;48.810;9.120;2024-02-21T20:04:49;4.10;;;3.00;;
209;SDS011;90;48.810;9.120;2024-02-21T20:07:15;4.47;;;3.20;;
209;SDS011;90;48.810;9.120;2024-02-21T20:09:43;3.43;;;3.30;;
209;SDS011;90;48.810;9.120;2024-02-21T20:12:10;3.50;;;3.30;;
209;SDS011;90;48.810;9.120;2024-02-21T20:14:37;4.70;;;3.20;;
209;SDS011;90;48.810;9.120;2024-02-21T20:17:04;3.67;;;3.03;;